sensor_id;sensor_type;location;lat;lon;timestamp;temperature;humidity
21259;DHT22;10787;53.364;-1.480;2024-03-25T00:01:56;4.90;99.90
21259;DHT22;10787;53.364;-1.480;2024-03-25T00:04:40;4.80;99.90
21259;DHT22;10787;53.364;-1.480;2024-03-25T00:07:24;4.80;99.90
21259;DHT22;10787;53.364;-1.480;2024-03-25T00:10:09;4.80;99.90
21259;DHT22;10787;53.364;-1.480;2024-03-25T00:12:54;4.80;99.90
21259;DHT22;10787;53.364;-1.480;2024-03-25T00:15:40;4.80;99.90
21259;DHT22;10787;53.364;-1.480;2024-03-25T00:18:25;4.70;99.90
21259;DHT22;10787;53.364;-1.480;2024-03-25T00:21:09;4.80;99.90
21259;DHT22;10787;53.364;-1.480;2024-03-25T00:23:54;4.80;99.90
21259;DHT22;10787;53.364;-1.480;2024-03-25T00:26:40;4.90;99.90
21259;DHT22;10787;53.364;-1.480;2024-03-25T00:29:24;4.90;99.90
21259;DHT22;10787;53.364;-1.480;2024-03-25T00:32:09;4.90;99.90
21259;DHT22;10787;53.364;-1.480;2024-03-25T00:34:54;5.10;99.90
21259;DHT22;10787;53.364;-1.480;2024-03-25T00:37:38;5.10;99.90
21259;DHT22;10787;53.364;-1.480;2024-03-25T00:40:23;5.10;99.90
21259;DHT22;10787;53.364;-1.480;2024-03-25T00:43:07;5.00;99.90
21259;DHT22;10787;53.364;-1.480;2024-03-25T00:45:51;5.00;99.90
21259;DHT22;10787;53.364;-1.480;2024-03-25T00:48:35;5.00;99.90
21259;DHT22;10787;53.364;-1.480;2024-03-25T00:51:21;5.00;99.90
21259;DHT22;10787;53.364;-1.480;2024-03-25T00:54:05;5.10;99.90
21259;DHT22;10787;53.364;-1.480;2024-03-25T00:56:50;5.00;99.90
21259;DHT22;10787;53.364;-1.480;2024-03-25T00:59:35;5.10;99.90
21259;DHT22;10787;53.364;-1.480;2024-03-25T01:02:19;5.00;99.90
21259;DHT22;10787;53.364;-1.480;2024-03-25T01:05:05;5.00;99.90
21259;DHT22;10787;53.364;-1.480;2024-03-25T01:07:49;5.00;99.90
21259;DHT22;10787;53.364;-1.480;2024-03-25T01:10:34;5.00;99.90
21259;DHT22;10787;53.364;-1.480;2024-03-25T01:13:18;5.10;99.90
21259;DHT22;10787;53.364;-1.480;2024-03-25T01:16:02;5.10;99.90
21259;DHT22;10787;53.364;-1.480;2024-03-25T01:18:46;5.20;99.90
21259;DHT22;10787;53.364;-1.480;2024-03-25T01:21:30;5.30;99.90
21259;DHT22;10787;53.364;-1.480;2024-03-25T01:24:14;5.30;99.90
21259;DHT22;10787;53.364;-1.480;2024-03-25T01:26:59;5.30;99.90
21259;DHT22;10787;53.364;-1.480;2024-03-25T01:29:43;5.40;99.90
21259;DHT22;10787;53.364;-1.480;2024-03-25T01:32:27;5.40;99.90
21259;DHT22;10787;53.364;-1.480;2024-03-25T01:35:13;5.50;99.90
21259;DHT22;10787;53.364;-1.480;2024-03-25T01:37:57;5.50;99.90
21259;DHT22;10787;53.364;-1.480;2024-03-25T01:40:41;5.50;99.90
21259;DHT22;10787;53.364;-1.480;2024-03-25T01:43:26;5.60;99.90
21259;DHT22;10787;53.364;-1.480;2024-03-25T01:46:10;5.60;99.90
21259;DHT22;10787;53.364;-1.480;2024-03-25T01:48:54;5.70;99.90
21259;DHT22;10787;53.364;-1.480;2024-03-25T01:51:42;5.70;99.90
21259;DHT22;10787;53.364;-1.480;2024-03-25T01:54:27;5.80;99.90
21259;DHT22;10787;53.364;-1.480;2024-03-25T01:57:23;5.80;99.90
21259;DHT22;10787;53.364;-1.480;2024-03-25T02:00:08;5.80;99.90
21259;DHT22;10787;53.364;-1.480;2024-03-25T02:02:54;5.80;99.90
21259;DHT22;10787;53.364;-1.480;2024-03-25T02:05:39;5.80;99.90
21259;DHT22;10787;53.364;-1.480;2024-03-25T02:08:23;5.90;99.90
21259;DHT22;10787;53.364;-1.480;2024-03-25T02:11:09;5.90;99.90
21259;DHT22;10787;53.364;-1.480;2024-03-25T02:13:54;6.00;99.90
21259;DHT22;10787;53.364;-1.480;2024-03-25T02:16:39;6.00;99.90
21259;DHT22;10787;53.364;-1.480;2024-03-25T02:19:24;6.00;99.90
21259;DHT22;10787;53.364;-1.480;2024-03-25T02:22:08;6.00;99.90
21259;DHT22;10787;53.364;-1.480;2024-03-25T02:24:53;6.10;99.90
21259;DHT22;10787;53.364;-1.480;2024-03-25T02:27:38;6.10;99.90
21259;DHT22;10787;53.364;-1.480;2024-03-25T02:30:22;6.10;99.90
21259;DHT22;10787;53.364;-1.480;2024-03-25T02:33:06;6.10;99.90
21259;DHT22;10787;53.364;-1.480;2024-03-25T02:35:50;6.20;99.90
21259;DHT22;10787;53.364;-1.480;2024-03-25T02:38:35;6.20;99.90
21259;DHT22;10787;53.364;-1.480;2024-03-25T02:41:20;6.20;99.90
21259;DHT22;10787;53.364;-1.480;2024-03-25T02:44:06;6.30;99.90
21259;DHT22;10787;53.364;-1.480;2024-03-25T02:46:50;6.30;99.90
21259;DHT22;10787;53.364;-1.480;2024-03-25T02:49:36;6.40;99.90
21259;DHT22;10787;53.364;-1.480;2024-03-25T02:52:20;6.30;99.90
21259;DHT22;10787;53.364;-1.480;2024-03-25T02:55:05;6.30;99.90
21259;DHT22;10787;53.364;-1.480;2024-03-25T02:57:49;6.30;99.90
21259;DHT22;10787;53.364;-1.480;2024-03-25T03:00:33;6.30;99.90
21259;DHT22;10787;53.364;-1.480;2024-03-25T03:03:17;6.30;99.90
21259;DHT22;10787;53.364;-1.480;2024-03-25T03:06:02;6.30;99.90
21259;DHT22;10787;53.364;-1.480;2024-03-25T03:08:46;6.30;99.90
21259;DHT22;10787;53.364;-1.480;2024-03-25T03:11:30;6.30;99.90
21259;DHT22;10787;53.364;-1.480;2024-03-25T03:14:15;6.30;99.90
21259;DHT22;10787;53.364;-1.480;2024-03-25T03:16:59;6.40;99.90
21259;DHT22;10787;53.364;-1.480;2024-03-25T03:19:48;6.40;99.90
21259;DHT22;10787;53.364;-1.480;2024-03-25T03:22:33;6.50;99.90
21259;DHT22;10787;53.364;-1.480;2024-03-25T03:25:17;6.50;99.90
21259;DHT22;10787;53.364;-1.480;2024-03-25T03:28:01;6.60;99.90
21259;DHT22;10787;53.364;-1.480;2024-03-25T03:30:46;6.60;99.90
21259;DHT22;10787;53.364;-1.480;2024-03-25T03:33:31;6.60;99.90
21259;DHT22;10787;53.364;-1.480;2024-03-25T03:36:20;6.60;99.90
21259;DHT22;10787;53.364;-1.480;2024-03-25T03:39:04;6.70;99.90
21259;DHT22;10787;53.364;-1.480;2024-03-25T03:41:49;6.70;99.90
21259;DHT22;10787;53.364;-1.480;2024-03-25T03:44:33;6.70;99.90
21259;DHT22;10787;53.364;-1.480;2024-03-25T03:47:18;6.60;99.90
21259;DHT22;10787;53.364;-1.480;2024-03-25T03:50:02;6.70;99.90
21259;DHT22;10787;53.364;-1.480;2024-03-25T03:52:46;6.70;99.90
21259;DHT22;10787;53.364;-1.480;2024-03-25T03:55:30;6.70;99.90
21259;DHT22;10787;53.364;-1.480;2024-03-25T03:58:14;6.70;99.90
21259;DHT22;10787;53.364;-1.480;2024-03-25T04:00:58;6.70;99.90
21259;DHT22;10787;53.364;-1.480;2024-03-25T04:03:42;6.70;99.90
21259;DHT22;10787;53.364;-1.480;2024-03-25T04:06:26;6.70;99.90
21259;DHT22;10787;53.364;-1.480;2024-03-25T04:09:11;6.70;99.90
21259;DHT22;10787;53.364;-1.480;2024-03-25T04:11:55;6.70;99.90
21259;DHT22;10787;53.364;-1.480;2024-03-25T04:14:39;6.60;99.90
21259;DHT22;10787;53.364;-1.480;2024-03-25T04:17:23;6.70;99.90
21259;DHT22;10787;53.364;-1.480;2024-03-25T04:20:07;6.70;99.90
21259;DHT22;10787;53.364;-1.480;2024-03-25T04:22:55;6.70;99.90
21259;DHT22;10787;53.364;-1.480;2024-03-25T04:25:39;6.70;99.90
21259;DHT22;10787;53.364;-1.480;2024-03-25T04:28:23;6.60;99.90
21259;DHT22;10787;53.364;-1.480;2024-03-25T04:31:08;6.60;99.90
21259;DHT22;10787;53.364;-1.480;2024-03-25T04:33:52;6.60;99.90
21259;DHT22;10787;53.364;-1.480;2024-03-25T04:36:37;6.60;99.90
21259;DHT22;10787;53.364;-1.480;2024-03-25T04:39:22;6.60;99.90
21259;DHT22;10787;53.364;-1.480;2024-03-25T04:42:07;6.60;99.90
21259;DHT22;10787;53.364;-1.480;2024-03-25T04:44:51;6.60;99.90
21259;DHT22;10787;53.364;-1.480;2024-03-25T04:47:35;6.60;99.90
21259;DHT22;10787;53.364;-1.480;2024-03-25T04:50:20;6.70;99.90
21259;DHT22;10787;53.364;-1.480;2024-03-25T04:53:03;6.60;99.90
21259;DHT22;10787;53.364;-1.480;2024-03-25T04:55:47;6.60;99.90
21259;DHT22;10787;53.364;-1.480;2024-03-25T04:58:31;6.60;99.90
21259;DHT22;10787;53.364;-1.480;2024-03-25T05:01:15;6.60;99.90
21259;DHT22;10787;53.364;-1.480;2024-03-25T05:03:59;6.60;99.90
21259;DHT22;10787;53.364;-1.480;2024-03-25T05:06:43;6.60;99.90
21259;DHT22;10787;53.364;-1.480;2024-03-25T05:09:27;6.60;99.90
21259;DHT22;10787;53.364;-1.480;2024-03-25T05:12:11;6.50;99.90
21259;DHT22;10787;53.364;-1.480;2024-03-25T05:14:56;6.50;99.90
21259;DHT22;10787;53.364;-1.480;2024-03-25T05:17:40;6.50;99.90
21259;DHT22;10787;53.364;-1.480;2024-03-25T05:20:25;6.50;99.90
21259;DHT22;10787;53.364;-1.480;2024-03-25T05:23:10;6.50;99.90
21259;DHT22;10787;53.364;-1.480;2024-03-25T05:25:55;6.50;99.90
21259;DHT22;10787;53.364;-1.480;2024-03-25T05:28:39;6.50;99.90
21259;DHT22;10787;53.364;-1.480;2024-03-25T05:31:23;6.50;99.90
21259;DHT22;10787;53.364;-1.480;2024-03-25T05:34:07;6.50;99.90
21259;DHT22;10787;53.364;-1.480;2024-03-25T05:36:54;6.50;99.90
21259;DHT22;10787;53.364;-1.480;2024-03-25T05:39:38;6.60;99.90
21259;DHT22;10787;53.364;-1.480;2024-03-25T05:42:22;6.60;99.90
21259;DHT22;10787;53.364;-1.480;2024-03-25T05:45:06;6.60;99.90
21259;DHT22;10787;53.364;-1.480;2024-03-25T05:47:53;6.60;99.90
21259;DHT22;10787;53.364;-1.480;2024-03-25T05:50:37;6.60;99.90
21259;DHT22;10787;53.364;-1.480;2024-03-25T05:53:21;6.60;99.90
21259;DHT22;10787;53.364;-1.480;2024-03-25T05:56:05;6.60;99.90
21259;DHT22;10787;53.364;-1.480;2024-03-25T05:58:50;6.60;99.90
21259;DHT22;10787;53.364;-1.480;2024-03-25T06:01:34;6.60;99.90
21259;DHT22;10787;53.364;-1.480;2024-03-25T06:04:21;6.60;99.90
21259;DHT22;10787;53.364;-1.480;2024-03-25T06:07:05;6.60;99.90
21259;DHT22;10787;53.364;-1.480;2024-03-25T06:09:50;6.60;99.90
21259;DHT22;10787;53.364;-1.480;2024-03-25T06:12:34;6.60;99.90
21259;DHT22;10787;53.364;-1.480;2024-03-25T06:15:18;6.60;99.90
21259;DHT22;10787;53.364;-1.480;2024-03-25T06:18:02;6.60;99.90
21259;DHT22;10787;53.364;-1.480;2024-03-25T06:20:46;6.60;99.90
21259;DHT22;10787;53.364;-1.480;2024-03-25T06:23:31;6.60;99.90
21259;DHT22;10787;53.364;-1.480;2024-03-25T06:26:16;6.60;99.90
21259;DHT22;10787;53.364;-1.480;2024-03-25T06:29:00;6.60;99.90
21259;DHT22;10787;53.364;-1.480;2024-03-25T06:31:45;6.60;99.90
21259;DHT22;10787;53.364;-1.480;2024-03-25T06:34:48;6.70;99.90
21259;DHT22;10787;53.364;-1.480;2024-03-25T06:37:32;6.70;99.90
21259;DHT22;10787;53.364;-1.480;2024-03-25T06:40:16;6.80;99.90
21259;DHT22;10787;53.364;-1.480;2024-03-25T06:43:01;6.90;99.90
21259;DHT22;10787;53.364;-1.480;2024-03-25T06:45:45;7.00;99.90
21259;DHT22;10787;53.364;-1.480;2024-03-25T06:48:29;7.30;99.90
21259;DHT22;10787;53.364;-1.480;2024-03-25T06:51:13;7.70;99.90
21259;DHT22;10787;53.364;-1.480;2024-03-25T06:53:57;8.20;99.90
21259;DHT22;10787;53.364;-1.480;2024-03-25T06:56:43;8.50;99.90
21259;DHT22;10787;53.364;-1.480;2024-03-25T06:59:27;8.60;99.90
21259;DHT22;10787;53.364;-1.480;2024-03-25T07:02:11;8.70;99.90
21259;DHT22;10787;53.364;-1.480;2024-03-25T07:04:55;8.60;99.90
21259;DHT22;10787;53.364;-1.480;2024-03-25T07:07:40;8.50;99.90
21259;DHT22;10787;53.364;-1.480;2024-03-25T07:10:24;8.40;99.90
21259;DHT22;10787;53.364;-1.480;2024-03-25T07:13:09;8.30;99.90
21259;DHT22;10787;53.364;-1.480;2024-03-25T07:15:53;8.20;99.90
21259;DHT22;10787;53.364;-1.480;2024-03-25T07:18:39;8.20;99.90
21259;DHT22;10787;53.364;-1.480;2024-03-25T07:21:23;8.10;99.90
21259;DHT22;10787;53.364;-1.480;2024-03-25T07:24:08;8.00;99.90
21259;DHT22;10787;53.364;-1.480;2024-03-25T07:26:52;7.90;99.90
21259;DHT22;10787;53.364;-1.480;2024-03-25T07:29:36;7.70;99.90
21259;DHT22;10787;53.364;-1.480;2024-03-25T07:32:20;7.60;99.90
21259;DHT22;10787;53.364;-1.480;2024-03-25T07:35:05;7.60;99.90
21259;DHT22;10787;53.364;-1.480;2024-03-25T07:37:52;7.50;99.90
21259;DHT22;10787;53.364;-1.480;2024-03-25T07:40:36;7.50;99.90
21259;DHT22;10787;53.364;-1.480;2024-03-25T07:43:20;7.50;99.90
21259;DHT22;10787;53.364;-1.480;2024-03-25T07:46:05;7.40;99.90
21259;DHT22;10787;53.364;-1.480;2024-03-25T07:48:49;7.40;99.90
21259;DHT22;10787;53.364;-1.480;2024-03-25T07:51:33;7.50;99.90
21259;DHT22;10787;53.364;-1.480;2024-03-25T07:54:19;7.40;99.90
21259;DHT22;10787;53.364;-1.480;2024-03-25T07:57:04;7.50;99.90
21259;DHT22;10787;53.364;-1.480;2024-03-25T07:59:48;7.40;99.90
21259;DHT22;10787;53.364;-1.480;2024-03-25T08:02:33;7.40;99.90
21259;DHT22;10787;53.364;-1.480;2024-03-25T08:05:17;7.40;99.90
21259;DHT22;10787;53.364;-1.480;2024-03-25T08:08:03;7.30;99.90
21259;DHT22;10787;53.364;-1.480;2024-03-25T08:10:48;7.30;99.90
21259;DHT22;10787;53.364;-1.480;2024-03-25T08:13:32;7.20;99.90
21259;DHT22;10787;53.364;-1.480;2024-03-25T08:16:16;7.20;99.90
21259;DHT22;10787;53.364;-1.480;2024-03-25T08:19:01;7.20;99.90
21259;DHT22;10787;53.364;-1.480;2024-03-25T08:21:45;7.20;99.90
21259;DHT22;10787;53.364;-1.480;2024-03-25T08:24:29;7.30;99.90
21259;DHT22;10787;53.364;-1.480;2024-03-25T08:27:13;7.30;99.90
21259;DHT22;10787;53.364;-1.480;2024-03-25T08:29:57;7.40;99.90
21259;DHT22;10787;53.364;-1.480;2024-03-25T08:32:41;7.40;99.90
21259;DHT22;10787;53.364;-1.480;2024-03-25T08:35:25;7.50;99.90
21259;DHT22;10787;53.364;-1.480;2024-03-25T08:38:09;7.60;99.90
21259;DHT22;10787;53.364;-1.480;2024-03-25T08:40:53;7.70;99.90
21259;DHT22;10787;53.364;-1.480;2024-03-25T08:43:37;7.90;99.90
21259;DHT22;10787;53.364;-1.480;2024-03-25T08:46:21;7.90;99.90
21259;DHT22;10787;53.364;-1.480;2024-03-25T08:49:05;8.10;99.90
21259;DHT22;10787;53.364;-1.480;2024-03-25T08:51:50;8.20;99.90
21259;DHT22;10787;53.364;-1.480;2024-03-25T08:54:35;8.20;99.90
21259;DHT22;10787;53.364;-1.480;2024-03-25T08:57:19;8.30;99.90
21259;DHT22;10787;53.364;-1.480;2024-03-25T09:00:03;8.40;99.90
21259;DHT22;10787;53.364;-1.480;2024-03-25T09:02:48;8.40;99.90
21259;DHT22;10787;53.364;-1.480;2024-03-25T09:05:32;8.50;99.90
21259;DHT22;10787;53.364;-1.480;2024-03-25T09:08:17;8.40;99.90
21259;DHT22;10787;53.364;-1.480;2024-03-25T09:11:01;8.40;99.90
21259;DHT22;10787;53.364;-1.480;2024-03-25T09:13:51;8.40;99.90
21259;DHT22;10787;53.364;-1.480;2024-03-25T09:16:35;8.40;99.90
21259;DHT22;10787;53.364;-1.480;2024-03-25T09:19:19;8.30;99.90
21259;DHT22;10787;53.364;-1.480;2024-03-25T09:22:03;8.30;99.90
21259;DHT22;10787;53.364;-1.480;2024-03-25T09:24:48;8.30;99.90
21259;DHT22;10787;53.364;-1.480;2024-03-25T09:27:33;8.20;99.90
21259;DHT22;10787;53.364;-1.480;2024-03-25T09:30:17;8.00;99.90
21259;DHT22;10787;53.364;-1.480;2024-03-25T09:33:05;7.90;99.90
21259;DHT22;10787;53.364;-1.480;2024-03-25T09:35:48;7.80;99.90
21259;DHT22;10787;53.364;-1.480;2024-03-25T09:38:33;7.80;99.90
21259;DHT22;10787;53.364;-1.480;2024-03-25T09:41:17;7.70;99.90
21259;DHT22;10787;53.364;-1.480;2024-03-25T09:44:01;7.70;99.90
21259;DHT22;10787;53.364;-1.480;2024-03-25T09:46:48;7.70;99.90
21259;DHT22;10787;53.364;-1.480;2024-03-25T09:49:32;7.70;99.90
21259;DHT22;10787;53.364;-1.480;2024-03-25T09:52:18;7.70;99.90
21259;DHT22;10787;53.364;-1.480;2024-03-25T09:55:03;7.70;99.90
21259;DHT22;10787;53.364;-1.480;2024-03-25T09:57:48;7.80;99.90
21259;DHT22;10787;53.364;-1.480;2024-03-25T10:00:32;7.90;99.90
21259;DHT22;10787;53.364;-1.480;2024-03-25T10:03:17;8.00;99.90
21259;DHT22;10787;53.364;-1.480;2024-03-25T10:06:01;8.10;99.90
21259;DHT22;10787;53.364;-1.480;2024-03-25T10:08:46;8.20;99.90
21259;DHT22;10787;53.364;-1.480;2024-03-25T10:11:31;8.30;99.90
21259;DHT22;10787;53.364;-1.480;2024-03-25T10:14:19;8.30;99.90
21259;DHT22;10787;53.364;-1.480;2024-03-25T10:17:03;8.30;99.90
21259;DHT22;10787;53.364;-1.480;2024-03-25T10:19:48;8.30;99.90
21259;DHT22;10787;53.364;-1.480;2024-03-25T10:22:43;8.30;99.90
21259;DHT22;10787;53.364;-1.480;2024-03-25T10:25:29;8.30;99.90
21259;DHT22;10787;53.364;-1.480;2024-03-25T10:28:14;8.30;99.90
21259;DHT22;10787;53.364;-1.480;2024-03-25T10:31:04;8.20;99.90
21259;DHT22;10787;53.364;-1.480;2024-03-25T10:33:50;8.30;99.90
21259;DHT22;10787;53.364;-1.480;2024-03-25T10:36:34;8.30;99.90
21259;DHT22;10787;53.364;-1.480;2024-03-25T10:39:20;8.40;99.90
21259;DHT22;10787;53.364;-1.480;2024-03-25T10:42:12;8.40;99.90
21259;DHT22;10787;53.364;-1.480;2024-03-25T10:44:58;8.50;99.90
21259;DHT22;10787;53.364;-1.480;2024-03-25T10:47:42;8.60;99.90
21259;DHT22;10787;53.364;-1.480;2024-03-25T10:50:29;8.60;99.90
21259;DHT22;10787;53.364;-1.480;2024-03-25T10:53:18;8.70;99.90
21259;DHT22;10787;53.364;-1.480;2024-03-25T10:56:03;8.80;99.90
21259;DHT22;10787;53.364;-1.480;2024-03-25T10:58:49;9.00;99.90
21259;DHT22;10787;53.364;-1.480;2024-03-25T11:01:35;9.20;99.90
21259;DHT22;10787;53.364;-1.480;2024-03-25T11:04:20;9.20;99.90
21259;DHT22;10787;53.364;-1.480;2024-03-25T11:07:09;9.40;99.90
21259;DHT22;10787;53.364;-1.480;2024-03-25T11:10:05;9.30;99.90
21259;DHT22;10787;53.364;-1.480;2024-03-25T11:12:50;9.20;99.90
21259;DHT22;10787;53.364;-1.480;2024-03-25T11:15:44;9.10;99.90
21259;DHT22;10787;53.364;-1.480;2024-03-25T11:18:29;9.00;99.90
21259;DHT22;10787;53.364;-1.480;2024-03-25T11:21:24;9.00;99.90
21259;DHT22;10787;53.364;-1.480;2024-03-25T11:24:09;8.90;99.90
21259;DHT22;10787;53.364;-1.480;2024-03-25T11:26:53;8.90;99.90
21259;DHT22;10787;53.364;-1.480;2024-03-25T11:29:37;8.80;99.90
21259;DHT22;10787;53.364;-1.480;2024-03-25T11:32:22;8.80;99.90
21259;DHT22;10787;53.364;-1.480;2024-03-25T11:35:06;8.80;99.90
21259;DHT22;10787;53.364;-1.480;2024-03-25T11:37:51;8.90;99.90
21259;DHT22;10787;53.364;-1.480;2024-03-25T11:40:36;8.90;99.90
21259;DHT22;10787;53.364;-1.480;2024-03-25T11:43:22;8.80;99.90
21259;DHT22;10787;53.364;-1.480;2024-03-25T11:46:06;8.90;99.90
21259;DHT22;10787;53.364;-1.480;2024-03-25T11:48:50;9.00;99.90
21259;DHT22;10787;53.364;-1.480;2024-03-25T11:51:34;9.00;99.90
21259;DHT22;10787;53.364;-1.480;2024-03-25T11:54:19;8.90;99.90
21259;DHT22;10787;53.364;-1.480;2024-03-25T11:57:03;9.00;99.90
21259;DHT22;10787;53.364;-1.480;2024-03-25T11:59:48;8.90;99.90
21259;DHT22;10787;53.364;-1.480;2024-03-25T12:02:33;9.00;99.90
21259;DHT22;10787;53.364;-1.480;2024-03-25T12:05:17;9.10;99.90
21259;DHT22;10787;53.364;-1.480;2024-03-25T12:08:02;9.10;99.90
21259;DHT22;10787;53.364;-1.480;2024-03-25T12:10:47;9.10;99.90
21259;DHT22;10787;53.364;-1.480;2024-03-25T12:13:50;9.10;99.90
21259;DHT22;10787;53.364;-1.480;2024-03-25T12:16:35;9.20;99.90
21259;DHT22;10787;53.364;-1.480;2024-03-25T12:19:20;9.30;99.90
21259;DHT22;10787;53.364;-1.480;2024-03-25T12:22:04;9.50;99.90
21259;DHT22;10787;53.364;-1.480;2024-03-25T12:24:49;9.60;99.90
21259;DHT22;10787;53.364;-1.480;2024-03-25T12:27:35;9.60;99.90
21259;DHT22;10787;53.364;-1.480;2024-03-25T12:30:20;9.60;99.90
21259;DHT22;10787;53.364;-1.480;2024-03-25T12:33:06;9.60;99.90
21259;DHT22;10787;53.364;-1.480;2024-03-25T12:35:52;9.50;99.90
21259;DHT22;10787;53.364;-1.480;2024-03-25T12:38:36;9.40;99.90
21259;DHT22;10787;53.364;-1.480;2024-03-25T12:41:22;9.50;99.90
21259;DHT22;10787;53.364;-1.480;2024-03-25T12:44:07;9.50;99.90
21259;DHT22;10787;53.364;-1.480;2024-03-25T12:46:51;9.50;99.90
21259;DHT22;10787;53.364;-1.480;2024-03-25T12:49:35;9.40;99.90
21259;DHT22;10787;53.364;-1.480;2024-03-25T12:52:20;9.50;99.90
21259;DHT22;10787;53.364;-1.480;2024-03-25T12:55:05;9.50;99.90
21259;DHT22;10787;53.364;-1.480;2024-03-25T12:57:50;9.60;99.90
21259;DHT22;10787;53.364;-1.480;2024-03-25T13:00:34;9.70;99.90
21259;DHT22;10787;53.364;-1.480;2024-03-25T13:03:18;9.80;99.90
21259;DHT22;10787;53.364;-1.480;2024-03-25T13:06:03;9.90;99.90
21259;DHT22;10787;53.364;-1.480;2024-03-25T13:08:47;10.00;99.90
21259;DHT22;10787;53.364;-1.480;2024-03-25T13:11:31;10.10;99.90
21259;DHT22;10787;53.364;-1.480;2024-03-25T13:14:15;10.10;99.90
21259;DHT22;10787;53.364;-1.480;2024-03-25T13:17:00;10.00;99.90
21259;DHT22;10787;53.364;-1.480;2024-03-25T13:19:44;10.00;99.90
21259;DHT22;10787;53.364;-1.480;2024-03-25T13:22:28;10.10;99.90
21259;DHT22;10787;53.364;-1.480;2024-03-25T13:25:14;10.20;99.90
21259;DHT22;10787;53.364;-1.480;2024-03-25T13:27:58;10.40;99.90
21259;DHT22;10787;53.364;-1.480;2024-03-25T13:30:42;10.50;99.90
21259;DHT22;10787;53.364;-1.480;2024-03-25T13:33:27;10.60;99.90
21259;DHT22;10787;53.364;-1.480;2024-03-25T13:36:11;10.70;99.90
21259;DHT22;10787;53.364;-1.480;2024-03-25T13:38:55;10.90;99.90
21259;DHT22;10787;53.364;-1.480;2024-03-25T13:41:40;11.00;99.90
21259;DHT22;10787;53.364;-1.480;2024-03-25T13:44:24;11.00;99.90
21259;DHT22;10787;53.364;-1.480;2024-03-25T13:47:08;10.80;99.90
21259;DHT22;10787;53.364;-1.480;2024-03-25T13:50:06;10.80;99.90
21259;DHT22;10787;53.364;-1.480;2024-03-25T13:52:53;10.80;99.90
21259;DHT22;10787;53.364;-1.480;2024-03-25T13:55:37;10.90;99.90
21259;DHT22;10787;53.364;-1.480;2024-03-25T13:58:22;11.20;99.90
21259;DHT22;10787;53.364;-1.480;2024-03-25T14:01:06;11.30;99.90
21259;DHT22;10787;53.364;-1.480;2024-03-25T14:03:53;11.30;99.90
21259;DHT22;10787;53.364;-1.480;2024-03-25T14:06:38;11.40;99.90
21259;DHT22;10787;53.364;-1.480;2024-03-25T14:09:24;11.40;99.90
21259;DHT22;10787;53.364;-1.480;2024-03-25T14:12:08;11.10;99.90
21259;DHT22;10787;53.364;-1.480;2024-03-25T14:14:52;11.00;99.90
21259;DHT22;10787;53.364;-1.480;2024-03-25T14:17:37;10.80;99.90
21259;DHT22;10787;53.364;-1.480;2024-03-25T14:20:21;10.60;99.90
21259;DHT22;10787;53.364;-1.480;2024-03-25T14:23:06;10.50;99.90
21259;DHT22;10787;53.364;-1.480;2024-03-25T14:25:51;10.40;99.90
21259;DHT22;10787;53.364;-1.480;2024-03-25T14:28:35;10.30;99.90
21259;DHT22;10787;53.364;-1.480;2024-03-25T14:31:21;10.20;99.90
21259;DHT22;10787;53.364;-1.480;2024-03-25T14:34:05;10.20;99.90
21259;DHT22;10787;53.364;-1.480;2024-03-25T14:36:49;10.20;99.90
21259;DHT22;10787;53.364;-1.480;2024-03-25T14:39:33;10.10;99.90
21259;DHT22;10787;53.364;-1.480;2024-03-25T14:42:18;10.00;99.90
21259;DHT22;10787;53.364;-1.480;2024-03-25T14:45:02;9.90;99.90
21259;DHT22;10787;53.364;-1.480;2024-03-25T14:47:47;9.90;99.90
21259;DHT22;10787;53.364;-1.480;2024-03-25T14:50:31;9.80;99.90
21259;DHT22;10787;53.364;-1.480;2024-03-25T14:53:15;9.80;99.90
21259;DHT22;10787;53.364;-1.480;2024-03-25T14:55:59;9.80;99.90
21259;DHT22;10787;53.364;-1.480;2024-03-25T14:58:43;9.80;99.90
21259;DHT22;10787;53.364;-1.480;2024-03-25T15:01:29;9.80;99.90
21259;DHT22;10787;53.364;-1.480;2024-03-25T15:04:15;9.70;99.90
21259;DHT22;10787;53.364;-1.480;2024-03-25T15:06:59;9.70;99.90
21259;DHT22;10787;53.364;-1.480;2024-03-25T15:09:43;9.80;99.90
21259;DHT22;10787;53.364;-1.480;2024-03-25T15:12:27;9.80;99.90
21259;DHT22;10787;53.364;-1.480;2024-03-25T15:15:11;9.80;99.90
21259;DHT22;10787;53.364;-1.480;2024-03-25T15:17:55;10.00;99.90
21259;DHT22;10787;53.364;-1.480;2024-03-25T15:20:40;10.20;99.90
21259;DHT22;10787;53.364;-1.480;2024-03-25T15:23:24;10.40;99.90
21259;DHT22;10787;53.364;-1.480;2024-03-25T15:26:08;10.60;99.90
21259;DHT22;10787;53.364;-1.480;2024-03-25T15:28:52;10.60;99.90
21259;DHT22;10787;53.364;-1.480;2024-03-25T15:31:36;10.60;99.90
21259;DHT22;10787;53.364;-1.480;2024-03-25T15:34:20;10.60;99.90
21259;DHT22;10787;53.364;-1.480;2024-03-25T15:37:05;10.70;99.90
21259;DHT22;10787;53.364;-1.480;2024-03-25T15:39:49;10.70;99.90
21259;DHT22;10787;53.364;-1.480;2024-03-25T15:42:34;10.70;99.90
21259;DHT22;10787;53.364;-1.480;2024-03-25T15:45:18;10.60;99.90
21259;DHT22;10787;53.364;-1.480;2024-03-25T15:48:02;10.50;99.90
21259;DHT22;10787;53.364;-1.480;2024-03-25T15:50:47;10.50;99.90
21259;DHT22;10787;53.364;-1.480;2024-03-25T15:53:31;10.40;99.90
21259;DHT22;10787;53.364;-1.480;2024-03-25T15:56:15;10.20;99.90
21259;DHT22;10787;53.364;-1.480;2024-03-25T15:59:00;10.20;99.90
21259;DHT22;10787;53.364;-1.480;2024-03-25T16:01:44;10.20;99.90
21259;DHT22;10787;53.364;-1.480;2024-03-25T16:04:29;10.20;99.90
21259;DHT22;10787;53.364;-1.480;2024-03-25T16:07:13;10.20;99.90
21259;DHT22;10787;53.364;-1.480;2024-03-25T16:09:58;10.30;99.90
21259;DHT22;10787;53.364;-1.480;2024-03-25T16:12:41;10.30;99.90
21259;DHT22;10787;53.364;-1.480;2024-03-25T16:15:26;10.40;99.90
21259;DHT22;10787;53.364;-1.480;2024-03-25T16:18:10;10.60;99.90
21259;DHT22;10787;53.364;-1.480;2024-03-25T16:20:54;10.80;99.90
21259;DHT22;10787;53.364;-1.480;2024-03-25T16:23:38;11.00;99.90
21259;DHT22;10787;53.364;-1.480;2024-03-25T16:26:23;11.10;99.90
21259;DHT22;10787;53.364;-1.480;2024-03-25T16:29:07;11.10;99.90
21259;DHT22;10787;53.364;-1.480;2024-03-25T16:31:51;11.20;99.90
21259;DHT22;10787;53.364;-1.480;2024-03-25T16:34:35;11.20;99.90
21259;DHT22;10787;53.364;-1.480;2024-03-25T16:37:19;11.20;99.90
21259;DHT22;10787;53.364;-1.480;2024-03-25T16:40:04;11.10;99.90
21259;DHT22;10787;53.364;-1.480;2024-03-25T16:42:51;11.10;99.90
21259;DHT22;10787;53.364;-1.480;2024-03-25T16:45:35;11.00;99.90
21259;DHT22;10787;53.364;-1.480;2024-03-25T16:48:19;10.90;99.90
21259;DHT22;10787;53.364;-1.480;2024-03-25T16:51:03;10.90;99.90
21259;DHT22;10787;53.364;-1.480;2024-03-25T16:53:48;10.80;99.90
21259;DHT22;10787;53.364;-1.480;2024-03-25T16:56:36;10.70;99.90
21259;DHT22;10787;53.364;-1.480;2024-03-25T16:59:20;10.70;99.90
21259;DHT22;10787;53.364;-1.480;2024-03-25T17:02:04;10.60;99.90
21259;DHT22;10787;53.364;-1.480;2024-03-25T17:04:48;10.50;99.90
21259;DHT22;10787;53.364;-1.480;2024-03-25T17:07:32;10.50;99.90
21259;DHT22;10787;53.364;-1.480;2024-03-25T17:10:17;10.40;99.90
21259;DHT22;10787;53.364;-1.480;2024-03-25T17:13:01;10.40;99.90
21259;DHT22;10787;53.364;-1.480;2024-03-25T17:15:46;10.40;99.90
21259;DHT22;10787;53.364;-1.480;2024-03-25T17:18:31;10.30;99.90